sensor_id;sensor_type;location;lat;lon;timestamp;P1;durP1;ratioP1;P2;durP2;ratioP2
8113;SDS011;4099;52.684;9.918;2023-09-12T00:03:05;44.63;;;41.87;;
8113;SDS011;4099;52.684;9.918;2023-09-12T00:08:06;43.27;;;40.67;;
8113;SDS011;4099;52.684;9.918;2023-09-12T00:13:10;45.37;;;42.50;;
8113;SDS011;4099;52.684;9.918;2023-09-12T00:18:11;49.70;;;46.43;;
8113;SDS011;4099;52.684;9.918;2023-09-12T00:23:13;87.23;;;82.63;;
8113;SDS011;4099;52.684;9.918;2023-09-12T00:28:17;104.10;;;99.07;;
8113;SDS011;4099;52.684;9.918;2023-09-12T00:33:19;91.90;;;87.13;;
8113;SDS011;4099;52.684;9.918;2023-09-12T00:38:20;83.87;;;79.53;;
8113;SDS011;4099;52.684;9.918;2023-09-12T00:43:24;73.13;;;69.03;;
8113;SDS011;4099;52.684;9.918;2023-09-12T00:48:25;77.83;;;73.50;;
8113;SDS011;4099;52.684;9.918;2023-09-12T00:53:28;64.33;;;60.80;;
8113;SDS011;4099;52.684;9.918;2023-09-12T00:58:31;38.83;;;36.13;;
8113;SDS011;4099;52.684;9.918;2023-09-12T01:03:34;40.97;;;38.17;;
8113;SDS011;4099;52.684;9.918;2023-09-12T01:08:39;47.50;;;44.60;;
8113;SDS011;4099;52.684;9.918;2023-09-12T01:13:42;41.33;;;38.77;;
8113;SDS011;4099;52.684;9.918;2023-09-12T01:18:44;44.13;;;41.07;;
8113;SDS011;4099;52.684;9.918;2023-09-12T01:23:49;64.67;;;60.53;;
8113;SDS011;4099;52.684;9.918;2023-09-12T01:29:09;55.23;;;51.73;;
8113;SDS011;4099;52.684;9.918;2023-09-12T01:34:13;47.67;;;43.90;;
8113;SDS011;4099;52.684;9.918;2023-09-12T01:39:15;55.30;;;50.90;;
8113;SDS011;4099;52.684;9.918;2023-09-12T01:44:19;46.30;;;43.03;;
8113;SDS011;4099;52.684;9.918;2023-09-12T01:49:23;43.17;;;40.23;;
8113;SDS011;4099;52.684;9.918;2023-09-12T01:54:27;49.10;;;45.90;;
8113;SDS011;4099;52.684;9.918;2023-09-12T01:59:31;78.93;;;74.77;;
8113;SDS011;4099;52.684;9.918;2023-09-12T02:04:33;86.03;;;81.33;;
8113;SDS011;4099;52.684;9.918;2023-09-12T02:09:35;45.63;;;42.47;;
8113;SDS011;4099;52.684;9.918;2023-09-12T02:14:39;41.87;;;39.17;;
8113;SDS011;4099;52.684;9.918;2023-09-12T02:19:41;43.43;;;40.60;;
8113;SDS011;4099;52.684;9.918;2023-09-12T02:24:43;75.43;;;71.30;;
8113;SDS011;4099;52.684;9.918;2023-09-12T02:29:46;62.20;;;58.63;;
8113;SDS011;4099;52.684;9.918;2023-09-12T02:34:48;68.20;;;64.40;;
8113;SDS011;4099;52.684;9.918;2023-09-12T02:39:50;81.97;;;77.13;;
8113;SDS011;4099;52.684;9.918;2023-09-12T02:44:54;66.00;;;61.60;;
8113;SDS011;4099;52.684;9.918;2023-09-12T02:49:56;85.30;;;80.80;;
8113;SDS011;4099;52.684;9.918;2023-09-12T02:54:58;104.17;;;98.87;;
8113;SDS011;4099;52.684;9.918;2023-09-12T03:00:01;105.47;;;99.87;;
8113;SDS011;4099;52.684;9.918;2023-09-12T03:05:07;101.43;;;96.00;;
8113;SDS011;4099;52.684;9.918;2023-09-12T03:10:09;92.03;;;87.30;;
8113;SDS011;4099;52.684;9.918;2023-09-12T03:15:13;104.67;;;99.00;;
8113;SDS011;4099;52.684;9.918;2023-09-12T03:20:14;99.67;;;94.23;;
8113;SDS011;4099;52.684;9.918;2023-09-12T03:25:16;88.43;;;83.17;;
8113;SDS011;4099;52.684;9.918;2023-09-12T03:30:20;66.17;;;62.07;;
8113;SDS011;4099;52.684;9.918;2023-09-12T03:35:23;41.97;;;39.13;;
8113;SDS011;4099;52.684;9.918;2023-09-12T03:40:25;68.60;;;64.57;;
8113;SDS011;4099;52.684;9.918;2023-09-12T03:45:30;110.60;;;105.10;;
8113;SDS011;4099;52.684;9.918;2023-09-12T03:50:32;117.83;;;111.70;;
8113;SDS011;4099;52.684;9.918;2023-09-12T03:55:34;122.57;;;116.10;;
8113;SDS011;4099;52.684;9.918;2023-09-12T04:00:38;124.73;;;118.53;;
8113;SDS011;4099;52.684;9.918;2023-09-12T04:05:40;122.43;;;116.13;;
8113;SDS011;4099;52.684;9.918;2023-09-12T04:10:42;143.03;;;135.53;;
8113;SDS011;4099;52.684;9.918;2023-09-12T04:15:46;179.33;;;169.83;;
8113;SDS011;4099;52.684;9.918;2023-09-12T04:20:48;176.00;;;166.27;;
8113;SDS011;4099;52.684;9.918;2023-09-12T04:25:49;162.40;;;153.07;;
8113;SDS011;4099;52.684;9.918;2023-09-12T04:30:55;252.97;;;240.60;;
8113;SDS011;4099;52.684;9.918;2023-09-12T04:36:03;137.13;;;128.83;;
8113;SDS011;4099;52.684;9.918;2023-09-12T04:41:05;122.00;;;114.77;;
8113;SDS011;4099;52.684;9.918;2023-09-12T04:46:08;114.47;;;107.97;;
8113;SDS011;4099;52.684;9.918;2023-09-12T04:51:11;125.47;;;118.60;;
8113;SDS011;4099;52.684;9.918;2023-09-12T04:56:13;125.27;;;117.77;;
8113;SDS011;4099;52.684;9.918;2023-09-12T05:01:16;93.67;;;87.97;;
8113;SDS011;4099;52.684;9.918;2023-09-12T05:06:19;78.83;;;74.23;;
8113;SDS011;4099;52.684;9.918;2023-09-12T05:11:21;80.23;;;75.43;;
8113;SDS011;4099;52.684;9.918;2023-09-12T05:16:25;69.73;;;65.07;;
8113;SDS011;4099;52.684;9.918;2023-09-12T05:21:27;71.73;;;66.70;;
8113;SDS011;4099;52.684;9.918;2023-09-12T05:26:29;67.77;;;63.60;;
8113;SDS011;4099;52.684;9.918;2023-09-12T05:31:33;67.03;;;62.00;;
8113;SDS011;4099;52.684;9.918;2023-09-12T05:36:35;62.43;;;58.33;;
8113;SDS011;4099;52.684;9.918;2023-09-12T05:41:37;96.60;;;91.23;;
8113;SDS011;4099;52.684;9.918;2023-09-12T05:46:40;77.70;;;72.77;;
8113;SDS011;4099;52.684;9.918;2023-09-12T05:51:42;79.03;;;74.07;;
8113;SDS011;4099;52.684;9.918;2023-09-12T05:56:45;66.47;;;62.07;;
8113;SDS011;4099;52.684;9.918;2023-09-12T06:01:49;90.73;;;85.57;;
8113;SDS011;4099;52.684;9.918;2023-09-12T06:06:52;85.07;;;80.17;;
8113;SDS011;4099;52.684;9.918;2023-09-12T06:11:54;93.27;;;88.07;;
8113;SDS011;4099;52.684;9.918;2023-09-12T06:16:57;79.30;;;75.03;;
8113;SDS011;4099;52.684;9.918;2023-09-12T06:21:59;67.13;;;63.40;;
8113;SDS011;4099;52.684;9.918;2023-09-12T06:27:01;61.93;;;58.13;;
8113;SDS011;4099;52.684;9.918;2023-09-12T06:32:04;60.37;;;57.03;;
8113;SDS011;4099;52.684;9.918;2023-09-12T06:37:06;87.27;;;82.97;;
8113;SDS011;4099;52.684;9.918;2023-09-12T06:42:08;85.37;;;81.20;;
8113;SDS011;4099;52.684;9.918;2023-09-12T06:47:12;86.93;;;82.70;;
8113;SDS011;4099;52.684;9.918;2023-09-12T06:52:14;73.47;;;69.77;;
8113;SDS011;4099;52.684;9.918;2023-09-12T06:57:18;80.23;;;76.43;;
8113;SDS011;4099;52.684;9.918;2023-09-12T07:02:21;89.90;;;85.07;;
8113;SDS011;4099;52.684;9.918;2023-09-12T07:07:23;89.33;;;84.97;;
8113;SDS011;4099;52.684;9.918;2023-09-12T07:12:25;89.70;;;85.47;;
8113;SDS011;4099;52.684;9.918;2023-09-12T07:17:30;91.07;;;86.77;;
8113;SDS011;4099;52.684;9.918;2023-09-12T07:22:32;88.40;;;84.13;;
8113;SDS011;4099;52.684;9.918;2023-09-12T07:27:34;66.03;;;62.23;;
8113;SDS011;4099;52.684;9.918;2023-09-12T07:32:37;37.07;;;34.37;;
8113;SDS011;4099;52.684;9.918;2023-09-12T07:37:39;45.67;;;42.03;;
8113;SDS011;4099;52.684;9.918;2023-09-12T07:42:41;37.40;;;34.30;;
8113;SDS011;4099;52.684;9.918;2023-09-12T07:47:44;58.10;;;54.43;;
8113;SDS011;4099;52.684;9.918;2023-09-12T07:52:46;75.00;;;70.80;;
8113;SDS011;4099;52.684;9.918;2023-09-12T07:57:48;75.87;;;71.70;;
8113;SDS011;4099;52.684;9.918;2023-09-12T08:02:51;65.37;;;61.43;;
8113;SDS011;4099;52.684;9.918;2023-09-12T08:07:53;67.23;;;63.40;;
8113;SDS011;4099;52.684;9.918;2023-09-12T08:12:55;54.90;;;51.60;;
8113;SDS011;4099;52.684;9.918;2023-09-12T08:17:58;101.67;;;96.60;;
8113;SDS011;4099;52.684;9.918;2023-09-12T08:23:00;55.57;;;52.37;;
8113;SDS011;4099;52.684;9.918;2023-09-12T08:28:03;41.90;;;38.80;;
8113;SDS011;4099;52.684;9.918;2023-09-12T08:33:07;36.83;;;34.37;;
8113;SDS011;4099;52.684;9.918;2023-09-12T08:38:08;40.50;;;37.53;;
8113;SDS011;4099;52.684;9.918;2023-09-12T08:43:11;39.17;;;36.50;;
8113;SDS011;4099;52.684;9.918;2023-09-12T08:48:15;37.20;;;34.77;;
8113;SDS011;4099;52.684;9.918;2023-09-12T08:53:18;40.60;;;38.00;;
8113;SDS011;4099;52.684;9.918;2023-09-12T08:58:22;47.27;;;44.57;;
8113;SDS011;4099;52.684;9.918;2023-09-12T09:03:29;110.53;;;105.40;;
8113;SDS011;4099;52.684;9.918;2023-09-12T09:08:31;168.07;;;160.73;;
8113;SDS011;4099;52.684;9.918;2023-09-12T09:13:34;147.33;;;140.77;;
8113;SDS011;4099;52.684;9.918;2023-09-12T09:18:50;100.47;;;95.47;;
8113;SDS011;4099;52.684;9.918;2023-09-12T09:23:58;106.33;;;101.37;;
8113;SDS011;4099;52.684;9.918;2023-09-12T09:29:05;129.73;;;123.83;;
8113;SDS011;4099;52.684;9.918;2023-09-12T09:34:12;133.40;;;127.17;;
8113;SDS011;4099;52.684;9.918;2023-09-12T09:39:15;120.00;;;114.37;;
8113;SDS011;4099;52.684;9.918;2023-09-12T09:44:22;141.40;;;135.20;;
8113;SDS011;4099;52.684;9.918;2023-09-12T09:49:28;134.53;;;128.63;;
8113;SDS011;4099;52.684;9.918;2023-09-12T09:54:34;97.93;;;93.27;;
8113;SDS011;4099;52.684;9.918;2023-09-12T09:59:36;84.27;;;79.97;;
8113;SDS011;4099;52.684;9.918;2023-09-12T10:04:39;64.60;;;61.23;;
8113;SDS011;4099;52.684;9.918;2023-09-12T10:09:42;106.93;;;101.80;;
8113;SDS011;4099;52.684;9.918;2023-09-12T10:14:45;114.23;;;108.73;;
8113;SDS011;4099;52.684;9.918;2023-09-12T10:19:51;135.10;;;129.00;;
8113;SDS011;4099;52.684;9.918;2023-09-12T10:24:56;92.57;;;88.07;;
8113;SDS011;4099;52.684;9.918;2023-09-12T10:30:00;109.80;;;104.57;;
8113;SDS011;4099;52.684;9.918;2023-09-12T10:35:06;125.50;;;119.80;;
8113;SDS011;4099;52.684;9.918;2023-09-12T10:40:10;90.33;;;85.83;;
8113;SDS011;4099;52.684;9.918;2023-09-12T10:45:13;72.37;;;68.43;;
8113;SDS011;4099;52.684;9.918;2023-09-12T10:50:17;53.27;;;50.07;;
8113;SDS011;4099;52.684;9.918;2023-09-12T10:55:20;43.27;;;40.30;;
8113;SDS011;4099;52.684;9.918;2023-09-12T11:00:23;48.53;;;45.30;;
8113;SDS011;4099;52.684;9.918;2023-09-12T11:05:36;41.53;;;38.43;;
8113;SDS011;4099;52.684;9.918;2023-09-12T11:10:39;56.23;;;53.00;;
8113;SDS011;4099;52.684;9.918;2023-09-12T11:15:41;44.07;;;40.93;;
8113;SDS011;4099;52.684;9.918;2023-09-12T11:21:14;54.00;;;50.87;;
8113;SDS011;4099;52.684;9.918;2023-09-12T11:26:16;73.17;;;69.00;;
8113;SDS011;4099;52.684;9.918;2023-09-12T11:31:24;91.27;;;86.67;;
8113;SDS011;4099;52.684;9.918;2023-09-12T11:36:28;101.50;;;96.43;;
8113;SDS011;4099;52.684;9.918;2023-09-12T11:41:39;111.07;;;105.63;;
8113;SDS011;4099;52.684;9.918;2023-09-12T11:46:41;64.87;;;60.77;;
8113;SDS011;4099;52.684;9.918;2023-09-12T11:51:49;68.60;;;64.90;;
8113;SDS011;4099;52.684;9.918;2023-09-12T11:56:52;85.17;;;80.73;;
8113;SDS011;4099;52.684;9.918;2023-09-12T12:01:56;110.53;;;105.33;;
8113;SDS011;4099;52.684;9.918;2023-09-12T12:07:00;115.17;;;109.67;;
8113;SDS011;4099;52.684;9.918;2023-09-12T12:12:08;83.60;;;79.03;;
8113;SDS011;4099;52.684;9.918;2023-09-12T12:17:11;69.23;;;65.53;;
8113;SDS011;4099;52.684;9.918;2023-09-12T12:22:14;72.40;;;68.13;;
8113;SDS011;4099;52.684;9.918;2023-09-12T12:27:16;73.70;;;69.90;;
8113;SDS011;4099;52.684;9.918;2023-09-12T12:32:18;101.83;;;96.83;;
8113;SDS011;4099;52.684;9.918;2023-09-12T12:37:25;52.93;;;49.67;;
8113;SDS011;4099;52.684;9.918;2023-09-12T12:42:34;54.40;;;51.13;;
8113;SDS011;4099;52.684;9.918;2023-09-12T12:47:39;57.70;;;54.47;;
8113;SDS011;4099;52.684;9.918;2023-09-12T12:52:42;50.50;;;47.33;;
8113;SDS011;4099;52.684;9.918;2023-09-12T12:57:44;42.90;;;39.87;;
8113;SDS011;4099;52.684;9.918;2023-09-12T13:02:48;36.83;;;34.50;;
8113;SDS011;4099;52.684;9.918;2023-09-12T13:07:51;35.33;;;33.03;;
8113;SDS011;4099;52.684;9.918;2023-09-12T13:12:53;40.37;;;38.03;;
8113;SDS011;4099;52.684;9.918;2023-09-12T13:17:55;41.20;;;38.47;;
8113;SDS011;4099;52.684;9.918;2023-09-12T13:22:58;35.17;;;32.80;;
8113;SDS011;4099;52.684;9.918;2023-09-12T13:28:00;32.57;;;30.57;;
8113;SDS011;4099;52.684;9.918;2023-09-12T13:33:03;31.60;;;29.80;;
8113;SDS011;4099;52.684;9.918;2023-09-12T13:38:06;112.17;;;107.30;;
8113;SDS011;4099;52.684;9.918;2023-09-12T13:43:09;39.43;;;37.40;;
8113;SDS011;4099;52.684;9.918;2023-09-12T13:48:11;41.77;;;39.63;;
8113;SDS011;4099;52.684;9.918;2023-09-12T13:53:15;34.77;;;33.00;;
8113;SDS011;4099;52.684;9.918;2023-09-12T13:58:17;50.87;;;48.47;;
8113;SDS011;4099;52.684;9.918;2023-09-12T14:03:19;57.87;;;55.20;;
8113;SDS011;4099;52.684;9.918;2023-09-12T14:08:22;64.50;;;61.57;;
8113;SDS011;4099;52.684;9.918;2023-09-12T14:13:24;43.63;;;41.60;;
8113;SDS011;4099;52.684;9.918;2023-09-12T14:18:26;53.53;;;51.13;;
8113;SDS011;4099;52.684;9.918;2023-09-12T14:23:29;20.50;;;19.40;;
8113;SDS011;4099;52.684;9.918;2023-09-12T14:28:31;36.97;;;35.13;;
8113;SDS011;4099;52.684;9.918;2023-09-12T14:33:35;23.23;;;21.97;;
8113;SDS011;4099;52.684;9.918;2023-09-12T14:38:38;29.60;;;28.07;;
8113;SDS011;4099;52.684;9.918;2023-09-12T14:43:40;14.07;;;13.27;;
8113;SDS011;4099;52.684;9.918;2023-09-12T14:48:42;26.53;;;25.17;;
8113;SDS011;4099;52.684;9.918;2023-09-12T14:53:46;60.17;;;57.37;;
8113;SDS011;4099;52.684;9.918;2023-09-12T14:58:49;37.90;;;36.00;;
8113;SDS011;4099;52.684;9.918;2023-09-12T15:03:50;39.93;;;37.90;;
8113;SDS011;4099;52.684;9.918;2023-09-12T15:08:53;25.23;;;23.93;;
8113;SDS011;4099;52.684;9.918;2023-09-12T15:13:55;22.67;;;21.37;;
8113;SDS011;4099;52.684;9.918;2023-09-12T15:18:57;30.80;;;29.37;;
8113;SDS011;4099;52.684;9.918;2023-09-12T15:24:00;37.73;;;35.93;;
8113;SDS011;4099;52.684;9.918;2023-09-12T15:29:02;30.57;;;28.93;;
8113;SDS011;4099;52.684;9.918;2023-09-12T15:34:04;58.80;;;55.67;;
8113;SDS011;4099;52.684;9.918;2023-09-12T15:39:07;31.80;;;30.07;;
8113;SDS011;4099;52.684;9.918;2023-09-12T15:44:09;43.27;;;41.20;;
8113;SDS011;4099;52.684;9.918;2023-09-12T15:49:11;38.03;;;36.20;;
8113;SDS011;4099;52.684;9.918;2023-09-12T15:54:14;27.50;;;26.00;;
8113;SDS011;4099;52.684;9.918;2023-09-12T15:59:16;33.50;;;31.83;;
8113;SDS011;4099;52.684;9.918;2023-09-12T16:04:18;28.70;;;27.13;;
8113;SDS011;4099;52.684;9.918;2023-09-12T16:09:21;19.87;;;18.70;;
8113;SDS011;4099;52.684;9.918;2023-09-12T16:14:23;34.27;;;32.57;;
8113;SDS011;4099;52.684;9.918;2023-09-12T16:19:25;28.20;;;26.73;;
8113;SDS011;4099;52.684;9.918;2023-09-12T16:24:28;33.30;;;31.57;;
8113;SDS011;4099;52.684;9.918;2023-09-12T16:29:30;30.47;;;28.87;;
8113;SDS011;4099;52.684;9.918;2023-09-12T16:34:32;21.70;;;20.43;;
8113;SDS011;4099;52.684;9.918;2023-09-12T16:39:36;30.97;;;29.27;;
8113;SDS011;4099;52.684;9.918;2023-09-12T16:44:42;30.87;;;29.27;;
8113;SDS011;4099;52.684;9.918;2023-09-12T16:49:45;38.47;;;36.30;;
8113;SDS011;4099;52.684;9.918;2023-09-12T16:54:48;35.40;;;33.57;;
8113;SDS011;4099;52.684;9.918;2023-09-12T16:59:50;29.70;;;28.27;;
8113;SDS011;4099;52.684;9.918;2023-09-12T17:04:52;26.60;;;25.10;;
8113;SDS011;4099;52.684;9.918;2023-09-12T17:09:55;27.03;;;25.60;;
8113;SDS011;4099;52.684;9.918;2023-09-12T17:14:58;29.10;;;26.70;;
8113;SDS011;4099;52.684;9.918;2023-09-12T17:19:59;30.63;;;28.47;;
8113;SDS011;4099;52.684;9.918;2023-09-12T17:25:03;30.30;;;28.23;;
8113;SDS011;4099;52.684;9.918;2023-09-12T17:30:06;28.20;;;26.63;;
8113;SDS011;4099;52.684;9.918;2023-09-12T17:35:09;56.70;;;53.87;;
8113;SDS011;4099;52.684;9.918;2023-09-12T17:40:12;59.87;;;57.10;;
8113;SDS011;4099;52.684;9.918;2023-09-12T17:45:14;60.30;;;57.30;;
8113;SDS011;4099;52.684;9.918;2023-09-12T17:50:16;55.83;;;53.17;;
8113;SDS011;4099;52.684;9.918;2023-09-12T17:55:20;64.33;;;61.37;;
8113;SDS011;4099;52.684;9.918;2023-09-12T18:00:22;61.90;;;58.83;;
8113;SDS011;4099;52.684;9.918;2023-09-12T18:05:27;62.43;;;59.30;;
8113;SDS011;4099;52.684;9.918;2023-09-12T18:10:30;56.07;;;53.10;;
8113;SDS011;4099;52.684;9.918;2023-09-12T18:15:32;52.00;;;49.23;;
8113;SDS011;4099;52.684;9.918;2023-09-12T18:20:34;51.17;;;48.37;;
8113;SDS011;4099;52.684;9.918;2023-09-12T18:25:37;62.30;;;59.10;;
8113;SDS011;4099;52.684;9.918;2023-09-12T18:30:39;55.17;;;52.53;;
8113;SDS011;4099;52.684;9.918;2023-09-12T18:35:41;54.93;;;51.80;;
8113;SDS011;4099;52.684;9.918;2023-09-12T18:40:44;50.33;;;47.47;;
8113;SDS011;4099;52.684;9.918;2023-09-12T18:45:46;52.87;;;50.10;;
8113;SDS011;4099;52.684;9.918;2023-09-12T18:50:50;55.77;;;53.00;;
8113;SDS011;4099;52.684;9.918;2023-09-12T18:55:54;54.23;;;51.23;;
8113;SDS011;4099;52.684;9.918;2023-09-12T19:00:56;42.80;;;40.37;;
8113;SDS011;4099;52.684;9.918;2023-09-12T19:05:58;43.10;;;40.03;;
8113;SDS011;4099;52.684;9.918;2023-09-12T19:11:03;40.03;;;37.70;;
8113;SDS011;4099;52.684;9.918;2023-09-12T19:16:05;36.83;;;34.53;;
8113;SDS011;4099;52.684;9.918;2023-09-12T19:21:07;42.67;;;40.37;;
8113;SDS011;4099;52.684;9.918;2023-09-12T19:26:10;35.43;;;33.10;;
8113;SDS011;4099;52.684;9.918;2023-09-12T19:31:12;33.40;;;31.43;;
8113;SDS011;4099;52.684;9.918;2023-09-12T19:36:14;45.60;;;43.00;;
8113;SDS011;4099;52.684;9.918;2023-09-12T19:41:18;40.03;;;37.97;;
8113;SDS011;4099;52.684;9.918;2023-09-12T19:46:20;59.23;;;56.00;;
8113;SDS011;4099;52.684;9.918;2023-09-12T19:51:22;52.67;;;50.07;;
8113;SDS011;4099;52.684;9.918;2023-09-12T19:56:25;71.77;;;68.27;;
8113;SDS011;4099;52.684;9.918;2023-09-12T20:01:29;69.20;;;65.67;;
8113;SDS011;4099;52.684;9.918;2023-09-12T20:06:31;116.03;;;110.20;;
8113;SDS011;4099;52.684;9.918;2023-09-12T20:11:34;123.87;;;118.37;;
8113;SDS011;4099;52.684;9.918;2023-09-12T20:16:37;101.80;;;95.50;;
8113;SDS011;4099;52.684;9.918;2023-09-12T20:21:39;76.93;;;72.73;;
8113;SDS011;4099;52.684;9.918;2023-09-12T20:26:43;69.47;;;65.73;;
8113;SDS011;4099;52.684;9.918;2023-09-12T20:31:46;44.73;;;42.07;;
8113;SDS011;4099;52.684;9.918;2023-09-12T20:36:49;52.13;;;49.47;;
8113;SDS011;4099;52.684;9.918;2023-09-12T20:41:53;38.67;;;36.20;;
8113;SDS011;4099;52.684;9.918;2023-09-12T20:46:56;48.57;;;45.97;;
8113;SDS011;4099;52.684;9.918;2023-09-12T20:51:59;107.30;;;102.33;;
8113;SDS011;4099;52.684;9.918;2023-09-12T20:57:03;73.17;;;69.30;;
8113;SDS011;4099;52.684;9.918;2023-09-12T21:02:05;71.47;;;67.30;;
8113;SDS011;4099;52.684;9.918;2023-09-12T21:07:08;59.90;;;56.83;;
8113;SDS011;4099;52.684;9.918;2023-09-12T21:12:11;76.77;;;72.77;;
8113;SDS011;4099;52.684;9.918;2023-09-12T21:17:13;76.07;;;72.37;;
8113;SDS011;4099;52.684;9.918;2023-09-12T21:22:15;102.53;;;97.63;;
8113;SDS011;4099;52.684;9.918;2023-09-12T21:27:18;93.53;;;88.83;;
8113;SDS011;4099;52.684;9.918;2023-09-12T21:32:20;68.80;;;64.90;;
8113;SDS011;4099;52.684;9.918;2023-09-12T21:37:23;53.37;;;50.43;;
8113;SDS011;4099;52.684;9.918;2023-09-12T21:42:26;54.27;;;50.73;;
8113;SDS011;4099;52.684;9.918;2023-09-12T21:47:28;62.23;;;58.70;;
8113;SDS011;4099;52.684;9.918;2023-09-12T21:52:30;63.20;;;59.40;;
8113;SDS011;4099;52.684;9.918;2023-09-12T21:57:33;54.97;;;51.83;;
8113;SDS011;4099;52.684;9.918;2023-09-12T22:02:36;50.63;;;47.50;;
8113;SDS011;4099;52.684;9.918;2023-09-12T22:07:37;48.80;;;44.60;;
8113;SDS011;4099;52.684;9.918;2023-09-12T22:12:41;40.80;;;37.87;;
8113;SDS011;4099;52.684;9.918;2023-09-12T22:17:43;41.60;;;38.90;;
8113;SDS011;4099;52.684;9.918;2023-09-12T22:22:45;42.07;;;38.37;;
8113;SDS011;4099;52.684;9.918;2023-09-12T22:27:48;40.40;;;36.90;;
8113;SDS011;4099;52.684;9.918;2023-09-12T22:32:50;40.70;;;38.03;;
8113;SDS011;4099;52.684;9.918;2023-09-12T22:37:52;39.43;;;36.37;;
8113;SDS011;4099;52.684;9.918;2023-09-12T22:42:55;132.60;;;125.83;;
8113;SDS011;4099;52.684;9.918;2023-09-12T22:47:57;130.90;;;124.83;;
8113;SDS011;4099;52.684;9.918;2023-09-12T22:52:59;128.07;;;122.13;;
8113;SDS011;4099;52.684;9.918;2023-09-12T22:58:03;50.60;;;47.70;;
8113;SDS011;4099;52.684;9.918;2023-09-12T23:03:05;44.20;;;41.40;;
8113;SDS011;4099;52.684;9.918;2023-09-12T23:08:07;47.50;;;44.17;;
8113;SDS011;4099;52.684;9.918;2023-09-12T23:13:11;38.60;;;35.80;;
8113;SDS011;4099;52.684;9.918;2023-09-12T23:18:12;35.23;;;32.83;;
8113;SDS011;4099;52.684;9.918;2023-09-12T23:23:15;38.70;;;35.80;;
8113;SDS011;4099;52.684;9.918;2023-09-12T23:28:18;38.10;;;35.57;;
8113;SDS011;4099;52.684;9.918;2023-09-12T23:33:20;34.40;;;31.80;;
8113;SDS011;4099;52.684;9.918;2023-09-12T23:38:23;33.87;;;31.43;;
8113;SDS011;4099;52.684;9.918;2023-09-12T23:43:26;34.43;;;31.70;;
8113;SDS011;4099;52.684;9.918;2023-09-12T23:48:28;33.83;;;31.33;;
8113;SDS011;4099;52.684;9.918;2023-09-12T23:53:30;33.37;;;30.97;;
8113;SDS011;4099;52.684;9.918;2023-09-12T23:58:33;31.17;;;29.03;;
